Terminal Aerodrome Forecast
Issued by NWS

Home | Current Version | Previous Version | Text Only | Print | Product List | Glossary On
Versions: 1 2 3 4 5 6 7 8 9 10 11 12 13 14 15 16 17 18 19 20 21 22 23 24 25
000
FTUS46 KSEW 102315 AAC
TAFPAE
TAF AMD
KPAE 102315Z 1023/1118 13015KT P6SM -SHRA SCT006 BKN015 OVC035
     FM110500 16012KT P6SM VCSH BKN006 OVC015
     FM110700 18008KT 5SM BR OVC012=

USA.gov is the U.S. government's official web portal to all federal, state and local government web resources and services.